sensor_id;sensor_type;location;lat;lon;timestamp;pressure;altitude;pressure_sealevel;temperature;humidity
62524;BME280;53689;56.878;60.672;2023-04-08T00:00:42;99403.13;;;22.30;14.83
62524;BME280;53689;56.878;60.672;2023-04-08T00:03:10;99408.50;;;22.38;16.51
62524;BME280;53689;56.878;60.672;2023-04-08T00:05:37;99409.28;;;22.47;18.01
62524;BME280;53689;56.878;60.672;2023-04-08T00:08:07;99412.75;;;22.33;14.41
62524;BME280;53689;56.878;60.672;2023-04-08T00:10:36;99408.00;;;22.35;17.09
62524;BME280;53689;56.878;60.672;2023-04-08T00:13:03;99401.97;;;22.24;14.72
62524;BME280;53689;56.878;60.672;2023-04-08T00:15:31;99405.03;;;22.21;16.73
62524;BME280;53689;56.878;60.672;2023-04-08T00:17:58;99410.34;;;22.38;16.25
62524;BME280;53689;56.878;60.672;2023-04-08T00:20:25;99401.25;;;22.39;16.31
62524;BME280;53689;56.878;60.672;2023-04-08T00:22:52;99408.50;;;22.38;16.18
62524;BME280;53689;56.878;60.672;2023-04-08T00:25:19;99404.94;;;22.38;18.16
62524;BME280;53689;56.878;60.672;2023-04-08T00:27:51;99403.09;;;22.38;16.22
62524;BME280;53689;56.878;60.672;2023-04-08T00:30:19;99405.47;;;22.33;17.73
62524;BME280;53689;56.878;60.672;2023-04-08T00:32:46;99397.47;;;22.16;15.39
62524;BME280;53689;56.878;60.672;2023-04-08T00:35:13;99393.88;;;22.24;16.67
62524;BME280;53689;56.878;60.672;2023-04-08T00:37:41;99389.22;;;22.10;15.47
62524;BME280;53689;56.878;60.672;2023-04-08T00:40:08;99391.25;;;22.08;14.46
62524;BME280;53689;56.878;60.672;2023-04-08T00:42:35;99393.22;;;22.22;17.32
62524;BME280;53689;56.878;60.672;2023-04-08T00:45:06;99389.00;;;22.20;15.59
62524;BME280;53689;56.878;60.672;2023-04-08T00:47:34;99391.53;;;22.21;18.22
62524;BME280;53689;56.878;60.672;2023-04-08T00:50:01;99386.31;;;22.20;16.49
62524;BME280;53689;56.878;60.672;2023-04-08T00:52:29;99385.31;;;22.12;14.95
62524;BME280;53689;56.878;60.672;2023-04-08T00:54:56;99386.19;;;22.13;15.90
62524;BME280;53689;56.878;60.672;2023-04-08T00:57:23;99383.09;;;22.24;16.59
62524;BME280;53689;56.878;60.672;2023-04-08T00:59:50;99384.13;;;22.23;17.44
62524;BME280;53689;56.878;60.672;2023-04-08T01:02:20;99382.44;;;22.22;16.96
62524;BME280;53689;56.878;60.672;2023-04-08T01:04:54;99378.09;;;22.13;17.52
62524;BME280;53689;56.878;60.672;2023-04-08T01:07:24;99376.91;;;22.15;15.89
62524;BME280;53689;56.878;60.672;2023-04-08T01:09:54;99382.31;;;22.15;16.55
62524;BME280;53689;56.878;60.672;2023-04-08T01:12:24;99378.78;;;22.07;16.04
62524;BME280;53689;56.878;60.672;2023-04-08T01:14:51;99382.13;;;22.09;16.18
62524;BME280;53689;56.878;60.672;2023-04-08T01:17:23;99379.63;;;22.07;16.52
62524;BME280;53689;56.878;60.672;2023-04-08T01:19:51;99386.50;;;22.10;17.57
62524;BME280;53689;56.878;60.672;2023-04-08T01:22:22;99380.59;;;22.14;15.75
62524;BME280;53689;56.878;60.672;2023-04-08T01:24:51;99382.09;;;22.17;15.60
62524;BME280;53689;56.878;60.672;2023-04-08T01:27:25;99374.84;;;22.26;15.61
62524;BME280;53689;56.878;60.672;2023-04-08T01:29:53;99376.06;;;22.15;15.92
62524;BME280;53689;56.878;60.672;2023-04-08T01:32:21;99372.28;;;22.33;16.55
62524;BME280;53689;56.878;60.672;2023-04-08T01:34:48;99372.97;;;22.26;16.35
62524;BME280;53689;56.878;60.672;2023-04-08T01:37:16;99364.22;;;22.24;16.59
62524;BME280;53689;56.878;60.672;2023-04-08T01:39:44;99372.31;;;22.24;17.29
62524;BME280;53689;56.878;60.672;2023-04-08T01:42:12;99369.44;;;22.26;19.02
62524;BME280;53689;56.878;60.672;2023-04-08T01:44:41;99368.44;;;22.27;18.56
62524;BME280;53689;56.878;60.672;2023-04-08T01:47:09;99367.50;;;22.43;18.86
62524;BME280;53689;56.878;60.672;2023-04-08T01:49:39;99369.28;;;22.19;18.31
62524;BME280;53689;56.878;60.672;2023-04-08T01:52:06;99372.38;;;21.99;16.68
62524;BME280;53689;56.878;60.672;2023-04-08T01:54:36;99371.88;;;21.96;16.44
62524;BME280;53689;56.878;60.672;2023-04-08T01:57:04;99369.19;;;21.96;15.26
62524;BME280;53689;56.878;60.672;2023-04-08T01:59:33;99369.16;;;22.04;15.56
62524;BME280;53689;56.878;60.672;2023-04-08T02:02:02;99370.50;;;22.16;17.35
62524;BME280;53689;56.878;60.672;2023-04-08T02:04:32;99367.59;;;22.18;17.79
62524;BME280;53689;56.878;60.672;2023-04-08T02:07:00;99368.66;;;22.09;15.10
62524;BME280;53689;56.878;60.672;2023-04-08T02:09:28;99366.31;;;22.06;16.15
62524;BME280;53689;56.878;60.672;2023-04-08T02:11:55;99365.66;;;22.03;14.78
62524;BME280;53689;56.878;60.672;2023-04-08T02:14:23;99370.38;;;22.01;14.55
62524;BME280;53689;56.878;60.672;2023-04-08T02:16:52;99369.88;;;22.06;14.97
62524;BME280;53689;56.878;60.672;2023-04-08T02:19:25;99365.81;;;22.02;14.51
62524;BME280;53689;56.878;60.672;2023-04-08T02:21:54;99368.50;;;22.02;14.80
62524;BME280;53689;56.878;60.672;2023-04-08T02:24:24;99360.41;;;22.02;14.63
62524;BME280;53689;56.878;60.672;2023-04-08T02:26:54;99363.47;;;21.99;14.65
62524;BME280;53689;56.878;60.672;2023-04-08T02:29:23;99365.66;;;21.95;14.00
62524;BME280;53689;56.878;60.672;2023-04-08T02:31:52;99362.63;;;21.98;14.70
62524;BME280;53689;56.878;60.672;2023-04-08T02:34:21;99360.41;;;22.02;14.63
62524;BME280;53689;56.878;60.672;2023-04-08T02:36:50;99364.16;;;21.93;16.70
62524;BME280;53689;56.878;60.672;2023-04-08T02:39:17;99367.03;;;21.91;14.99
62524;BME280;53689;56.878;60.672;2023-04-08T02:41:47;99368.00;;;22.07;14.33
62524;BME280;53689;56.878;60.672;2023-04-08T02:44:15;99369.66;;;22.08;15.97
62524;BME280;53689;56.878;60.672;2023-04-08T02:46:42;99365.81;;;22.02;14.52
62524;BME280;53689;56.878;60.672;2023-04-08T02:49:09;99364.59;;;22.13;15.74
62524;BME280;53689;56.878;60.672;2023-04-08T02:51:36;99370.28;;;22.18;15.46
62524;BME280;53689;56.878;60.672;2023-04-08T02:54:05;99363.78;;;22.04;15.18
62524;BME280;53689;56.878;60.672;2023-04-08T02:56:34;99356.47;;;22.21;16.85
62524;BME280;53689;56.878;60.672;2023-04-08T02:59:01;99367.50;;;21.95;14.87
62524;BME280;53689;56.878;60.672;2023-04-08T03:01:29;99359.44;;;21.95;16.53
62524;BME280;53689;56.878;60.672;2023-04-08T03:03:56;99357.94;;;21.92;14.58
62524;BME280;53689;56.878;60.672;2023-04-08T03:06:24;99359.75;;;22.00;15.94
62524;BME280;53689;56.878;60.672;2023-04-08T03:08:51;99348.41;;;22.13;17.94
62524;BME280;53689;56.878;60.672;2023-04-08T03:11:20;99349.28;;;22.05;15.13
62524;BME280;53689;56.878;60.672;2023-04-08T03:13:47;99350.47;;;22.11;14.51
62524;BME280;53689;56.878;60.672;2023-04-08T03:16:14;99347.13;;;22.32;16.96
62524;BME280;53689;56.878;60.672;2023-04-08T03:18:41;99346.00;;;22.26;15.03
62524;BME280;53689;56.878;60.672;2023-04-08T03:21:08;99344.72;;;22.45;16.76
62524;BME280;53689;56.878;60.672;2023-04-08T03:23:35;99347.94;;;22.41;15.91
62524;BME280;53689;56.878;60.672;2023-04-08T03:26:02;99348.94;;;22.48;17.48
62524;BME280;53689;56.878;60.672;2023-04-08T03:28:31;99346.97;;;22.34;16.46
62524;BME280;53689;56.878;60.672;2023-04-08T03:30:58;99337.66;;;22.44;17.34
62524;BME280;53689;56.878;60.672;2023-04-08T03:33:25;99341.00;;;22.47;17.76
62524;BME280;53689;56.878;60.672;2023-04-08T03:35:53;99341.84;;;22.47;18.16
62524;BME280;53689;56.878;60.672;2023-04-08T03:38:20;99338.78;;;22.58;18.29
62524;BME280;53689;56.878;60.672;2023-04-08T03:40:47;99340.50;;;22.43;17.17
62524;BME280;53689;56.878;60.672;2023-04-08T03:43:14;99336.25;;;22.57;16.89
62524;BME280;53689;56.878;60.672;2023-04-08T03:45:44;99337.97;;;22.41;18.67
62524;BME280;53689;56.878;60.672;2023-04-08T03:48:11;99333.06;;;22.53;16.91
62524;BME280;53689;56.878;60.672;2023-04-08T03:50:38;99332.25;;;22.44;18.16
62524;BME280;53689;56.878;60.672;2023-04-08T03:53:05;99329.34;;;22.46;17.92
62524;BME280;53689;56.878;60.672;2023-04-08T03:55:32;99328.84;;;22.51;16.03
62524;BME280;53689;56.878;60.672;2023-04-08T03:58:00;99332.66;;;22.65;18.36
62524;BME280;53689;56.878;60.672;2023-04-08T04:00:27;99321.25;;;22.54;17.15
62524;BME280;53689;56.878;60.672;2023-04-08T04:02:56;99324.84;;;22.38;17.63
62524;BME280;53689;56.878;60.672;2023-04-08T04:05:23;99319.78;;;22.43;17.27
62524;BME280;53689;56.878;60.672;2023-04-08T04:07:51;99317.38;;;22.49;17.19
62524;BME280;53689;56.878;60.672;2023-04-08T04:10:18;99313.16;;;22.54;18.37
62524;BME280;53689;56.878;60.672;2023-04-08T04:12:45;99306.56;;;22.57;17.78
62524;BME280;53689;56.878;60.672;2023-04-08T04:15:12;99307.66;;;22.39;17.86
62524;BME280;53689;56.878;60.672;2023-04-08T04:17:39;99308.13;;;22.51;16.32
62524;BME280;53689;56.878;60.672;2023-04-08T04:20:08;99308.59;;;22.55;17.46
62524;BME280;53689;56.878;60.672;2023-04-08T04:22:36;99305.75;;;22.48;17.61
62524;BME280;53689;56.878;60.672;2023-04-08T04:25:03;99293.59;;;22.52;18.51
62524;BME280;53689;56.878;60.672;2023-04-08T04:27:30;99293.34;;;22.39;16.50
62524;BME280;53689;56.878;60.672;2023-04-08T04:29:57;99288.88;;;22.46;19.28
62524;BME280;53689;56.878;60.672;2023-04-08T04:32:26;99281.41;;;22.56;18.00
62524;BME280;53689;56.878;60.672;2023-04-08T04:34:53;99291.81;;;22.36;16.83
62524;BME280;53689;56.878;60.672;2023-04-08T04:37:22;99278.38;;;22.59;18.61
62524;BME280;53689;56.878;60.672;2023-04-08T04:39:49;99288.94;;;22.38;16.76
62524;BME280;53689;56.878;60.672;2023-04-08T04:42:16;99282.00;;;22.43;16.47
62524;BME280;53689;56.878;60.672;2023-04-08T04:44:43;99273.38;;;22.48;17.15
62524;BME280;53689;56.878;60.672;2023-04-08T04:47:10;99285.69;;;22.42;17.79
62524;BME280;53689;56.878;60.672;2023-04-08T04:49:37;99287.56;;;22.50;17.02
62524;BME280;53689;56.878;60.672;2023-04-08T04:52:04;99278.97;;;22.70;15.34
62524;BME280;53689;56.878;60.672;2023-04-08T04:54:33;99269.31;;;22.76;17.74
62524;BME280;53689;56.878;60.672;2023-04-08T04:57:00;99271.91;;;22.69;15.91
62524;BME280;53689;56.878;60.672;2023-04-08T04:59:27;99267.16;;;22.71;17.32
62524;BME280;53689;56.878;60.672;2023-04-08T05:01:54;99281.63;;;22.55;17.34
62524;BME280;53689;56.878;60.672;2023-04-08T05:04:23;99277.47;;;22.36;17.16
62524;BME280;53689;56.878;60.672;2023-04-08T05:06:50;99272.34;;;22.26;16.85
62524;BME280;53689;56.878;60.672;2023-04-08T05:09:17;99265.09;;;22.18;16.16
62524;BME280;53689;56.878;60.672;2023-04-08T05:11:45;99265.25;;;22.25;15.86
62524;BME280;53689;56.878;60.672;2023-04-08T05:14:12;99259.56;;;22.43;17.62
62524;BME280;53689;56.878;60.672;2023-04-08T05:16:40;99257.25;;;22.40;16.90
62524;BME280;53689;56.878;60.672;2023-04-08T05:19:07;99258.91;;;22.49;18.84
62524;BME280;53689;56.878;60.672;2023-04-08T05:21:34;99266.78;;;22.51;15.85
62524;BME280;53689;56.878;60.672;2023-04-08T05:24:01;99257.91;;;22.42;16.87
62524;BME280;53689;56.878;60.672;2023-04-08T05:26:28;99264.41;;;22.24;14.89
62524;BME280;53689;56.878;60.672;2023-04-08T05:28:57;99256.22;;;22.41;15.41
62524;BME280;53689;56.878;60.672;2023-04-08T05:31:24;99248.88;;;22.26;14.98
62524;BME280;53689;56.878;60.672;2023-04-08T05:33:51;99244.47;;;22.34;16.05
62524;BME280;53689;56.878;60.672;2023-04-08T05:36:18;99245.75;;;22.38;15.30
62524;BME280;53689;56.878;60.672;2023-04-08T05:38:45;99238.22;;;22.33;16.12
62524;BME280;53689;56.878;60.672;2023-04-08T05:41:12;99243.53;;;22.18;15.41
62524;BME280;53689;56.878;60.672;2023-04-08T05:43:40;99239.88;;;22.11;14.71
62524;BME280;53689;56.878;60.672;2023-04-08T05:46:09;99237.03;;;22.04;15.47
62524;BME280;53689;56.878;60.672;2023-04-08T05:48:36;99245.97;;;22.04;16.56
62524;BME280;53689;56.878;60.672;2023-04-08T05:51:03;99238.19;;;22.10;15.15
62524;BME280;53689;56.878;60.672;2023-04-08T05:53:30;99229.28;;;22.33;16.04
62524;BME280;53689;56.878;60.672;2023-04-08T05:55:57;99232.09;;;22.16;13.76
62524;BME280;53689;56.878;60.672;2023-04-08T05:58:24;99221.31;;;22.16;14.11
62524;BME280;53689;56.878;60.672;2023-04-08T06:00:52;99222.50;;;22.13;13.44
62524;BME280;53689;56.878;60.672;2023-04-08T06:03:20;99220.81;;;22.12;13.72
62524;BME280;53689;56.878;60.672;2023-04-08T06:05:48;99217.25;;;22.43;17.06
62524;BME280;53689;56.878;60.672;2023-04-08T06:08:15;99210.44;;;22.56;17.54
62524;BME280;53689;56.878;60.672;2023-04-08T06:10:47;99209.31;;;22.50;15.31
62524;BME280;53689;56.878;60.672;2023-04-08T06:13:14;99204.00;;;22.34;15.38
62524;BME280;53689;56.878;60.672;2023-04-08T06:15:41;99196.25;;;22.30;16.63
62524;BME280;53689;56.878;60.672;2023-04-08T06:18:08;99197.75;;;22.33;15.74
62524;BME280;53689;56.878;60.672;2023-04-08T06:20:37;99205.72;;;22.26;14.49
62524;BME280;53689;56.878;60.672;2023-04-08T06:23:04;99191.06;;;22.52;18.19
62524;BME280;53689;56.878;60.672;2023-04-08T06:25:31;99183.63;;;22.54;17.42
62524;BME280;53689;56.878;60.672;2023-04-08T06:27:58;99186.72;;;22.66;17.19
62524;BME280;53689;56.878;60.672;2023-04-08T06:30:26;99178.44;;;22.44;16.42
62524;BME280;53689;56.878;60.672;2023-04-08T06:32:53;99185.22;;;22.40;14.76
62524;BME280;53689;56.878;60.672;2023-04-08T06:35:20;99175.63;;;22.61;16.41
62524;BME280;53689;56.878;60.672;2023-04-08T06:37:49;99177.78;;;22.66;18.24
62524;BME280;53689;56.878;60.672;2023-04-08T06:40:16;99187.56;;;22.43;14.50
62524;BME280;53689;56.878;60.672;2023-04-08T06:42:44;99187.38;;;22.45;16.15
62524;BME280;53689;56.878;60.672;2023-04-08T06:45:20;99186.91;;;22.65;16.89
62524;BME280;53689;56.878;60.672;2023-04-08T06:47:47;99181.16;;;22.44;16.53
62524;BME280;53689;56.878;60.672;2023-04-08T06:50:14;99183.38;;;22.41;15.10
62524;BME280;53689;56.878;60.672;2023-04-08T06:52:41;99181.00;;;22.38;15.96
62524;BME280;53689;56.878;60.672;2023-04-08T06:55:10;99179.00;;;22.40;15.50
62524;BME280;53689;56.878;60.672;2023-04-08T06:57:37;99168.56;;;22.60;16.87
62524;BME280;53689;56.878;60.672;2023-04-08T07:00:05;99177.06;;;22.49;16.60
62524;BME280;53689;56.878;60.672;2023-04-08T07:02:32;99168.88;;;22.80;17.25
62524;BME280;53689;56.878;60.672;2023-04-08T07:04:59;99169.34;;;22.84;16.87
62524;BME280;53689;56.878;60.672;2023-04-08T07:07:26;99161.44;;;22.82;16.96
62524;BME280;53689;56.878;60.672;2023-04-08T07:09:54;99156.03;;;22.82;16.94
62524;BME280;53689;56.878;60.672;2023-04-08T07:12:22;99153.88;;;22.78;13.97
62524;BME280;53689;56.878;60.672;2023-04-08T07:14:49;99153.47;;;22.66;14.56
62524;BME280;53689;56.878;60.672;2023-04-08T07:17:16;99152.13;;;22.70;16.33
62524;BME280;53689;56.878;60.672;2023-04-08T07:19:44;99147.72;;;22.54;16.36
62524;BME280;53689;56.878;60.672;2023-04-08T07:22:11;99140.00;;;22.66;14.28
62524;BME280;53689;56.878;60.672;2023-04-08T07:24:38;99140.00;;;22.66;18.15
62524;BME280;53689;56.878;60.672;2023-04-08T07:27:05;99129.16;;;22.51;14.05
62524;BME280;53689;56.878;60.672;2023-04-08T07:29:35;99129.66;;;22.69;16.16
62524;BME280;53689;56.878;60.672;2023-04-08T07:32:02;99127.44;;;22.73;16.91
62524;BME280;53689;56.878;60.672;2023-04-08T07:34:29;99124.47;;;22.83;17.55
62524;BME280;53689;56.878;60.672;2023-04-08T07:36:56;99113.69;;;22.68;14.42
62524;BME280;53689;56.878;60.672;2023-04-08T07:39:24;99116.72;;;22.80;17.05
62524;BME280;53689;56.878;60.672;2023-04-08T07:41:51;99113.22;;;22.79;17.18
62524;BME280;53689;56.878;60.672;2023-04-08T07:44:18;99107.81;;;22.79;17.04
62524;BME280;53689;56.878;60.672;2023-04-08T07:46:46;99103.72;;;22.83;17.05
62524;BME280;53689;56.878;60.672;2023-04-08T07:49:13;99108.06;;;22.84;16.85
62524;BME280;53689;56.878;60.672;2023-04-08T07:51:40;99093.94;;;22.82;16.87
62524;BME280;53689;56.878;60.672;2023-04-08T07:54:07;99088.81;;;22.88;16.91
62524;BME280;53689;56.878;60.672;2023-04-08T07:56:35;99093.19;;;22.89;17.07
62524;BME280;53689;56.878;60.672;2023-04-08T07:59:02;99082.88;;;22.77;14.41
62524;BME280;53689;56.878;60.672;2023-04-08T08:01:29;99088.81;;;22.88;16.95
62524;BME280;53689;56.878;60.672;2023-04-08T08:03:57;99078.22;;;22.86;17.55
62524;BME280;53689;56.878;60.672;2023-04-08T08:06:25;99077.66;;;22.91;17.62
62524;BME280;53689;56.878;60.672;2023-04-08T08:08:52;99068.06;;;22.88;17.62
62524;BME280;53689;56.878;60.672;2023-04-08T08:11:19;99063.50;;;22.89;16.90
62524;BME280;53689;56.878;60.672;2023-04-08T08:13:47;99056.44;;;22.88;16.39
62524;BME280;53689;56.878;60.672;2023-04-08T08:16:14;99053.72;;;22.88;17.67
62524;BME280;53689;56.878;60.672;2023-04-08T08:18:41;99054.38;;;22.75;15.14
62524;BME280;53689;56.878;60.672;2023-04-08T08:21:10;99049.34;;;22.86;18.44
62524;BME280;53689;56.878;60.672;2023-04-08T08:23:37;99046.09;;;22.91;17.72
62524;BME280;53689;56.878;60.672;2023-04-08T08:26:05;99037.25;;;22.82;14.70
62524;BME280;53689;56.878;60.672;2023-04-08T08:28:32;99044.78;;;22.87;17.31
62524;BME280;53689;56.878;60.672;2023-04-08T08:30:59;99039.13;;;22.82;16.66
62524;BME280;53689;56.878;60.672;2023-04-08T08:33:27;99036.59;;;22.80;15.48
62524;BME280;53689;56.878;60.672;2023-04-08T08:35:54;99022.63;;;22.92;17.49
62524;BME280;53689;56.878;60.672;2023-04-08T08:38:23;99036.78;;;22.79;16.87
62524;BME280;53689;56.878;60.672;2023-04-08T08:40:52;99031.94;;;22.74;16.23
62524;BME280;53689;56.878;60.672;2023-04-08T08:43:19;99022.78;;;22.90;16.25
62524;BME280;53689;56.878;60.672;2023-04-08T08:45:46;99030.34;;;22.80;13.62
62524;BME280;53689;56.878;60.672;2023-04-08T08:48:14;99029.88;;;22.76;14.82
62524;BME280;53689;56.878;60.672;2023-04-08T08:50:41;99031.47;;;22.85;16.89
62524;BME280;53689;56.878;60.672;2023-04-08T08:53:08;99029.44;;;22.88;16.65
62524;BME280;53689;56.878;60.672;2023-04-08T08:55:37;99027.38;;;22.90;16.40
62524;BME280;53689;56.878;60.672;2023-04-08T08:58:25;99016.97;;;22.86;15.76
62524;BME280;53689;56.878;60.672;2023-04-08T09:00:52;99017.97;;;22.85;17.56
62524;BME280;53689;56.878;60.672;2023-04-08T09:03:20;99015.19;;;22.79;14.79
62524;BME280;53689;56.878;60.672;2023-04-08T09:05:49;99017.69;;;22.80;16.49
62524;BME280;53689;56.878;60.672;2023-04-08T09:08:26;99010.00;;;22.77;16.18
62524;BME280;53689;56.878;60.672;2023-04-08T09:10:55;99004.69;;;22.69;13.91
62524;BME280;53689;56.878;60.672;2023-04-08T09:13:23;99002.34;;;22.66;15.89
62524;BME280;53689;56.878;60.672;2023-04-08T09:15:59;99011.66;;;22.63;15.82
62524;BME280;53689;56.878;60.672;2023-04-08T09:18:27;99004.69;;;22.69;14.99
62524;BME280;53689;56.878;60.672;2023-04-08T09:20:54;99008.03;;;22.71;15.31
62524;BME280;53689;56.878;60.672;2023-04-08T09:23:21;99003.56;;;22.78;17.01
62524;BME280;53689;56.878;60.672;2023-04-08T09:25:48;98998.38;;;22.98;17.03
62524;BME280;53689;56.878;60.672;2023-04-08T09:28:20;98995.50;;;23.00;16.04
62524;BME280;53689;56.878;60.672;2023-04-08T09:30:47;98996.78;;;23.04;15.88
62524;BME280;53689;56.878;60.672;2023-04-08T09:33:14;98994.56;;;23.08;17.10
62524;BME280;53689;56.878;60.672;2023-04-08T09:35:42;98994.75;;;23.06;16.86
62524;BME280;53689;56.878;60.672;2023-04-08T09:38:10;98984.78;;;23.07;16.56
62524;BME280;53689;56.878;60.672;2023-04-08T09:40:37;98983.75;;;23.08;16.25
62524;BME280;53689;56.878;60.672;2023-04-08T09:43:04;98978.34;;;23.08;17.56
62524;BME280;53689;56.878;60.672;2023-04-08T09:45:35;98981.91;;;23.08;16.66
62524;BME280;53689;56.878;60.672;2023-04-08T09:48:05;98983.56;;;23.09;16.90
62524;BME280;53689;56.878;60.672;2023-04-08T09:50:38;98976.97;;;23.12;16.67
62524;BME280;53689;56.878;60.672;2023-04-08T09:53:07;98972.84;;;23.16;16.17
62524;BME280;53689;56.878;60.672;2023-04-08T09:55:35;98971.34;;;23.13;16.72
62524;BME280;53689;56.878;60.672;2023-04-08T09:58:04;98970.97;;;23.17;15.20
62524;BME280;53689;56.878;60.672;2023-04-08T10:00:35;98979.09;;;23.17;15.89
62524;BME280;53689;56.878;60.672;2023-04-08T10:03:06;98974.03;;;23.13;15.65
62524;BME280;53689;56.878;60.672;2023-04-08T10:05:36;98962.59;;;23.11;14.40
62524;BME280;53689;56.878;60.672;2023-04-08T10:08:04;98969.50;;;23.14;16.92
62524;BME280;53689;56.878;60.672;2023-04-08T10:10:31;98956.63;;;23.16;16.58
62524;BME280;53689;56.878;60.672;2023-04-08T10:12:59;98964.94;;;23.14;17.04
62524;BME280;53689;56.878;60.672;2023-04-08T10:15:27;98961.56;;;23.12;14.51
62524;BME280;53689;56.878;60.672;2023-04-08T10:20:43;98956.84;;;23.14;15.98
62524;BME280;53689;56.878;60.672;2023-04-08T10:23:11;98951.63;;;23.13;16.84
62524;BME280;53689;56.878;60.672;2023-04-08T10:25:39;98952.81;;;23.10;16.17
62524;BME280;53689;56.878;60.672;2023-04-08T10:28:24;98954.50;;;23.11;15.98
62524;BME280;53689;56.878;60.672;2023-04-08T10:30:52;98956.16;;;23.12;14.47
62524;BME280;53689;56.878;60.672;2023-04-08T10:33:20;98956.16;;;23.12;16.66
62524;BME280;53689;56.878;60.672;2023-04-08T10:35:51;98958.22;;;23.10;15.47
62524;BME280;53689;56.878;60.672;2023-04-08T10:38:19;98953.47;;;23.12;16.37
62524;BME280;53689;56.878;60.672;2023-04-08T10:40:46;98943.97;;;23.17;16.51
62524;BME280;53689;56.878;60.672;2023-04-08T10:43:14;98946.09;;;23.21;16.82
62524;BME280;53689;56.878;60.672;2023-04-08T10:45:41;98946.28;;;23.20;16.01
62524;BME280;53689;56.878;60.672;2023-04-08T10:48:12;98947.94;;;23.21;16.22
62524;BME280;53689;56.878;60.672;2023-04-08T10:50:39;98944.59;;;23.19;17.30
62524;BME280;53689;56.878;60.672;2023-04-08T10:53:08;98953.34;;;23.21;15.77
62524;BME280;53689;56.878;60.672;2023-04-08T10:55:35;98948.97;;;23.20;16.21
62524;BME280;53689;56.878;60.672;2023-04-08T10:58:06;98950.00;;;23.19;15.48
62524;BME280;53689;56.878;60.672;2023-04-08T11:00:33;98936.31;;;23.20;14.88
62524;BME280;53689;56.878;60.672;2023-04-08T11:03:01;98943.44;;;23.06;18.46
62524;BME280;53689;56.878;60.672;2023-04-08T11:05:29;98946.06;;;22.99;15.73
62524;BME280;53689;56.878;60.672;2023-04-08T11:07:56;98940.34;;;23.09;17.41
62524;BME280;53689;56.878;60.672;2023-04-08T11:10:25;98939.38;;;23.17;16.26
62524;BME280;53689;56.878;60.672;2023-04-08T11:12:52;98939.59;;;23.16;15.46
62524;BME280;53689;56.878;60.672;2023-04-08T11:15:20;98938.94;;;23.13;14.08
62524;BME280;53689;56.878;60.672;2023-04-08T11:17:48;98943.34;;;23.14;14.16
62524;BME280;53689;56.878;60.672;2023-04-08T11:20:15;98939.78;;;23.14;15.74
62524;BME280;53689;56.878;60.672;2023-04-08T11:22:42;98941.22;;;23.10;13.45
62524;BME280;53689;56.878;60.672;2023-04-08T11:25:10;98938.28;;;23.11;12.82
62524;BME280;53689;56.878;60.672;2023-04-08T11:27:38;98938.03;;;23.06;13.35
62524;BME280;53689;56.878;60.672;2023-04-08T11:30:06;98934.19;;;23.16;13.08
62524;BME280;53689;56.878;60.672;2023-04-08T11:32:34;98937.94;;;23.14;15.46
62524;BME280;53689;56.878;60.672;2023-04-08T11:35:03;98927.75;;;23.17;15.79
62524;BME280;53689;56.878;60.672;2023-04-08T11:37:35;98928.59;;;23.17;15.16
62524;BME280;53689;56.878;60.672;2023-04-08T11:40:05;98924.28;;;23.23;16.04
62524;BME280;53689;56.878;60.672;2023-04-08T11:42:32;98921.78;;;23.21;13.50
62524;BME280;53689;56.878;60.672;2023-04-08T11:45:01;98920.31;;;23.19;13.07
62524;BME280;53689;56.878;60.672;2023-04-08T11:47:35;98926.34;;;23.21;14.71
62524;BME280;53689;56.878;60.672;2023-04-08T11:50:03;98909.75;;;23.24;15.13
62524;BME280;53689;56.878;60.672;2023-04-08T11:52:40;98920.34;;;23.25;15.40
62524;BME280;53689;56.878;60.672;2023-04-08T11:55:08;98917.66;;;23.25;13.30
62524;BME280;53689;56.878;60.672;2023-04-08T11:57:35;98911.63;;;23.23;13.75
62524;BME280;53689;56.878;60.672;2023-04-08T12:00:05;98911.78;;;23.22;12.86
62524;BME280;53689;56.878;60.672;2023-04-08T12:02:36;98917.41;;;23.20;15.83
62524;BME280;53689;56.878;60.672;2023-04-08T12:05:03;98914.78;;;23.27;15.55
62524;BME280;53689;56.878;60.672;2023-04-08T12:07:30;98920.34;;;23.25;15.88
62524;BME280;53689;56.878;60.672;2023-04-08T12:09:58;98908.72;;;23.25;15.80
62524;BME280;53689;56.878;60.672;2023-04-08T12:12:25;98902.78;;;23.30;14.26
62524;BME280;53689;56.878;60.672;2023-04-08T12:14:52;98905.66;;;23.28;14.82
62524;BME280;53689;56.878;60.672;2023-04-08T12:17:20;98899.22;;;23.29;13.78
62524;BME280;53689;56.878;60.672;2023-04-08T12:19:48;98903.41;;;23.32;16.97
62524;BME280;53689;56.878;60.672;2023-04-08T12:22:15;98895.94;;;23.34;15.85
62524;BME280;53689;56.878;60.672;2023-04-08T12:24:42;98895.09;;;23.33;14.76
62524;BME280;53689;56.878;60.672;2023-04-08T12:27:09;98892.41;;;23.33;15.36
62524;BME280;53689;56.878;60.672;2023-04-08T12:29:36;98893.44;;;23.32;13.24
62524;BME280;53689;56.878;60.672;2023-04-08T12:32:04;98892.41;;;23.33;13.00
62524;BME280;53689;56.878;60.672;2023-04-08T12:34:33;98896.13;;;23.32;13.10
62524;BME280;53689;56.878;60.672;2023-04-08T12:37:00;98883.28;;;23.34;14.90
62524;BME280;53689;56.878;60.672;2023-04-08T12:39:27;98889.13;;;23.38;12.98
62524;BME280;53689;56.878;60.672;2023-04-08T12:41:54;98890.41;;;23.42;12.27
62524;BME280;53689;56.878;60.672;2023-04-08T12:44:22;98885.81;;;23.42;12.67
62524;BME280;53689;56.878;60.672;2023-04-08T12:46:49;98875.88;;;23.43;13.85
62524;BME280;53689;56.878;60.672;2023-04-08T12:49:16;98885.19;;;23.40;13.71
62524;BME280;53689;56.878;60.672;2023-04-08T12:51:45;98886.69;;;23.43;15.24
62524;BME280;53689;56.878;60.672;2023-04-08T12:54:12;98880.09;;;23.52;13.87
62524;BME280;53689;56.878;60.672;2023-04-08T12:56:39;98882.75;;;23.46;12.54